Latest Coastal Weather Observations for Darwin Harbour

IDD60701

Issued at 12:55 am CST Sunday 26 October 2014 (issued every 10 minutes, with the page automatically refreshed every 10 minutes)

About coastal observations | Map of coastal stations | Coastal observations for NT | Marine services | Other Formats
Station Details ID: 014072 Name: DARWIN NTC AWS Lat: -12.47 Lon: 130.85 Height: 0.0 m
Data from the previous 72 hours. | See also: Recent months for locations in Northern Territory
Date/Time
CST
Temp

°C
Wind Pressure Rain
since 9am
mm
Weather Cloud Vis
km
Sea
Height
m
Swell
Dir
 
Speed
knots
Gust
knots
hPa Trend Height
m
Period
s
Dir
26/12:30am 28.0 NNE 5 10 1013.0 - - - - - - - - -
26/12:00am 28.7 WNW 4 9 1013.1 - - - - - - - - -
 
Date/Time
CST
Temp

°C
Wind Pressure Rain
since 9am
mm
Weather Cloud Vis
km
Sea
Height
m
Swell
Dir
 
Speed
knots
Gust
knots
hPa Trend Height
m
Period
s
Dir
25/11:30pm 28.4 W 4 7 1013.4 - - - - - - - - -
25/11:00pm 28.4 W 6 9 1013.5 - - - - - - - - -
25/10:30pm 28.5 W 5 8 1013.4 - - - - - - - - -
25/10:00pm 28.9 WSW 5 8 1013.4 - - - - - - - - -
25/09:30pm 29.2 WSW 6 8 1012.8 - - - - - - - - -
25/09:00pm 29.4 W 8 10 1012.6 - - - - - - - - -
25/08:30pm 30.1 ENE 2 4 1011.9 - - - - - - - - -
25/08:00pm 30.3 NE 3 5 1011.7 - - - - - - - - -
25/07:30pm 30.3 NNE 3 6 1011.4 - - - - - - - - -
25/07:00pm 30.7 N 4 7 1011.0 - - - - - - - - -
25/06:30pm 30.9 NNW 3 6 1010.8 - - - - - - - - -
25/06:00pm 31.0 NNW 6 11 1010.5 - - - - - - - - -
25/05:30pm 31.2 NNW 7 13 1010.1 - - - - - - - - -
25/05:00pm 31.6 NNW 7 12 1009.9 - - - - - - - - -
25/04:30pm 31.8 N 6 13 1009.9 - - - - - - - - -
25/04:00pm 32.0 N 8 15 1009.9 - - - - - - - - -
25/03:30pm 30.9 NNE 9 17 1010.1 - - - - - - - - -
25/03:00pm 30.7 N 10 17 1010.5 - - - - - - - - -
25/02:30pm 30.8 NNW 10 16 1010.8 - - - - - - - - -
25/02:00pm 31.5 NNW 7 12 1011.1 - - - - - - - - -
25/01:30pm 31.2 NNW 8 16 1011.6 - - - - - - - - -
25/01:00pm 32.1 SSE 1 5 1012.1 - - - - - - - - -
25/12:30pm 31.1 S 5 7 1012.6 - - - - - - - - -
25/12:00pm 30.0 SSW 7 8 1013.2 - - - - - - - - -
25/11:30am 29.3 SSW 7 9 1013.7 - - - - - - - - -
25/11:00am 29.4 SE 4 7 1014.0 - - - - - - - - -
25/10:30am 28.8 S 4 6 1014.4 - - - - - - - - -
25/10:00am 28.4 S 4 5 1014.7 - - - - - - - - -
25/09:30am 28.2 SE 4 7 1015.1 - - - - - - - - -
25/09:00am 28.2 E 5 7 1015.2 - - - - - - - - -
25/08:30am 28.4 E 5 7 1015.1 - - - - - - - - -
25/08:00am 28.0 E 5 8 1015.0 - - - - - - - - -
25/07:30am 27.4 ENE 4 8 1014.7 - - - - - - - - -
25/07:00am 26.9 ENE 5 8 1014.2 - - - - - - - - -
25/06:30am 26.6 ENE 4 8 1013.8 - - - - - - - - -
25/06:00am 26.3 ENE 5 9 1013.5 - - - - - - - - -
25/05:30am 26.2 ENE 4 7 1013.1 - - - - - - - - -
25/05:00am 26.4 ENE 4 7 1012.7 - - - - - - - - -
25/04:30am 26.6 NE 5 8 1012.4 - - - - - - - - -
25/04:00am 26.7 ENE 5 9 1012.3 - - - - - - - - -
25/03:30am 26.8 NE 5 9 1012.1 - - - - - - - - -
25/03:00am 27.0 ENE 5 10 1012.2 - - - - - - - - -
25/02:30am 27.0 ENE 4 9 1012.4 - - - - - - - - -
25/02:00am 27.2 NE 4 7 1012.4 - - - - - - - - -
25/01:30am 27.6 N 4 9 1012.4 - - - - - - - - -
25/01:00am 27.8 NNE 5 10 1012.5 - - - - - - - - -
25/12:30am 28.3 W 8 10 1012.5 - - - - - - - - -
25/12:00am 28.3 W 8 12 1012.6 - - - - - - - - -
 
Date/Time
CST
Temp

°C
Wind Pressure Rain
since 9am
mm
Weather Cloud Vis
km
Sea
Height
m
Swell
Dir
 
Speed
knots
Gust
knots
hPa Trend Height
m
Period
s
Dir
24/11:30pm 28.5 W 10 14 1012.7 - - - - - - - - -
24/11:00pm 28.6 WNW 10 15 1012.7 - - - - - - - - -
24/10:30pm 28.7 WNW 11 16 1012.7 - - - - - - - - -
24/10:00pm 28.8 WNW 9 15 1012.5 - - - - - - - - -
24/09:30pm 28.6 WNW 14 17 1011.9 - - - - - - - - -
24/09:00pm 28.9 WNW 12 18 1011.4 - - - - - - - - -
24/08:30pm 30.2 N 4 9 1010.9 - - - - - - - - -
24/08:00pm 30.2 ENE 5 7 1010.4 - - - - - - - - -
24/07:30pm 30.9 NNE 2 5 1010.0 - - - - - - - - -
24/07:00pm 30.8 N 4 8 1009.7 - - - - - - - - -
24/06:30pm 30.8 NNE 7 12 1009.4 - - - - - - - - -
24/06:00pm 31.2 NNE 7 14 1009.0 - - - - - - - - -
24/05:30pm 31.8 NE 8 16 1008.5 - - - - - - - - -
24/05:00pm 31.9 NNE 10 20 1008.2 - - - - - - - - -
24/04:30pm 31.8 NNE 10 19 1008.3 - - - - - - - - -
24/04:00pm 32.2 NNE 7 15 1008.6 - - - - - - - - -
24/03:30pm 31.3 NNE 11 20 1008.8 - - - - - - - - -
24/03:00pm 31.1 N 10 20 1009.0 - - - - - - - - -
24/02:30pm 30.9 N 10 17 1009.4 - - - - - - - - -
24/02:00pm 30.8 N 9 17 1009.9 - - - - - - - - -
24/01:30pm 30.1 NW 10 17 1010.3 - - - - - - - - -
24/01:00pm 30.2 NW 9 16 1010.8 - - - - - - - - -
24/12:30pm 30.2 W 3 7 1011.3 - - - - - - - - -
24/12:00pm 32.1 ESE 6 11 1011.8 - - - - - - - - -
24/11:30am 30.8 ESE 4 6 1012.4 - - - - - - - - -
24/11:00am 30.3 ESE 8 12 1012.9 - - - - - - - - -
24/10:30am 30.5 E 6 11 1013.4 - - - - - - - - -
24/10:00am 29.9 E 8 11 1013.7 - - - - - - - - -
24/09:30am 29.4 E 6 10 1013.8 - - - - - - - - -
24/09:00am 28.2 E 5 7 1014.0 - - - - - - - - -
24/08:30am 29.1 ENE 3 6 1013.8 - - - - - - - - -
24/08:00am 28.3 ENE 3 5 1013.3 - - - - - - - - -
24/07:30am 28.0 NE 2 4 1013.1 - - - - - - - - -
24/07:00am 27.6 NNE 2 4 1013.0 - - - - - - - - -
24/06:30am 27.2 N 2 3 1013.0 - - - - - - - - -
24/06:00am 26.8 NE 2 4 1012.6 - - - - - - - - -
24/05:30am 26.8 ENE 2 4 1012.3 - - - - - - - - -
24/05:00am 26.7 NE 3 5 1012.0 - - - - - - - - -
24/04:30am 27.1 NNE 2 4 1012.1 - - - - - - - - -
24/04:00am 27.4 NE 4 6 1012.0 - - - - - - - - -
24/03:30am 27.6 ENE 4 7 1011.9 - - - - - - - - -
24/03:00am 27.7 E 4 7 1012.0 - - - - - - - - -
24/02:30am 27.6 E 4 8 1012.2 - - - - - - - - -
24/02:00am 28.4 ENE 3 6 1012.6 - - - - - - - - -
24/01:30am 28.5 N 4 8 1012.6 - - - - - - - - -
24/01:00am 28.6 NNW 6 10 1012.9 - - - - - - - - -
24/12:30am 28.4 NW 5 9 1013.0 - - - - - - - - -
24/12:00am 28.4 NW 6 10 1013.0 - - - - - - - - -
 
Date/Time
CST
Temp

°C
Wind Pressure Rain
since 9am
mm
Weather Cloud Vis
km
Sea
Height
m
Swell
Dir
 
Speed
knots
Gust
knots
hPa Trend Height
m
Period
s
Dir
23/11:30pm 28.6 WNW 7 12 1013.3 - - - - - - - - -
23/11:00pm 28.4 WNW 10 15 1013.2 - - - - - - - - -
23/10:30pm 28.9 WNW 14 19 1013.0 - - - - - - - - -
23/10:00pm 28.9 NW 8 14 1012.5 - - - - - - - - -
23/09:30pm 29.3 NW 6 12 1011.9 - - - - - - - - -
23/09:00pm 29.9 NE 3 7 1011.3 - - - - - - - - -
23/08:30pm 30.3 NE 3 5 1010.6 - - - - - - - - -
23/08:00pm 30.8 NW 2 4 1010.5 - - - - - - - - -
23/07:30pm 30.4 NW 3 4 1010.2 - - - - - - - - -
23/07:00pm 30.8 NNW 4 8 1009.8 - - - - - - - - -
23/06:30pm 31.2 NNW 5 10 1009.6 - - - - - - - - -
23/06:00pm 32.0 N 3 9 1009.2 - - - - - - - - -
23/05:30pm 32.0 N 7 12 1008.8 - - - - - - - - -
23/05:00pm 31.6 NNE 8 15 1008.4 - - - - - - - - -
23/04:30pm 31.6 NNE 9 17 1008.2 - - - - - - - - -
23/04:00pm 31.4 NNE 8 17 1008.6 - - - - - - - - -
23/03:30pm 31.9 N 5 14 1008.9 - - - - - - - - -
23/03:00pm 32.2 N 6 14 1009.3 - - - - - - - - -
23/02:30pm 31.2 NW 7 15 1009.8 - - - - - - - - -
23/02:00pm 30.2 W 7 14 1010.2 - - - - - - - - -
23/01:30pm 30.9 WNW 7 16 1010.7 - - - - - - - - -
23/01:00pm 30.6 W 6 12 1011.2 - - - - - - - - -
23/12:30pm 30.3 W 8 14 1011.8 - - - - - - - - -
23/12:00pm 30.0 W 6 12 1012.2 - - - - - - - - -
23/11:30am 31.5 E 5 9 1012.6 - - - - - - - - -
23/11:00am 30.7 E 9 13 1012.8 - - - - - - - - -
23/10:30am 30.4 E 9 16 1013.3 - - - - - - - - -
23/10:00am 29.8 E 12 18 1013.8 - - - - - - - - -
23/09:30am 29.6 ENE 6 13 1013.9 - - - - - - - - -
23/09:00am 28.6 ENE 7 12 1014.0 - - - - - - - - -
23/08:30am 28.5 ENE 6 12 1013.9 - - - - - - - - -
23/08:00am 27.9 ENE 4 8 1013.8 - - - - - - - - -
23/07:30am 27.4 ENE 5 9 1013.6 - - - - - - - - -
23/07:00am 27.2 ENE 4 7 1013.2 - - - - - - - - -
23/06:30am 26.9 ENE 3 6 1012.8 - - - - - - - - -
23/06:00am 26.8 ENE 3 6 1012.5 - - - - - - - - -
23/05:30am 27.0 NNE 4 6 1012.1 - - - - - - - - -
23/05:00am 26.9 NE 3 5 1011.7 - - - - - - - - -
23/04:30am 27.0 NNE 3 6 1011.8 - - - - - - - - -
23/04:00am 27.0 NE 4 6 1011.9 - - - - - - - - -
23/03:30am 27.3 NE 4 6 1012.0 - - - - - - - - -
23/03:00am 27.4 ENE 4 7 1012.0 - - - - - - - - -
23/02:30am 27.5 NE 5 10 1012.0 - - - - - - - - -
23/02:00am 27.7 NE 4 8 1012.3 - - - - - - - - -
23/01:30am 27.3 NNW 4 7 1012.2 - - - - - - - - -
23/01:00am 27.3 NNW 6 11 1012.5 - - - - - - - - -

Other Formats:

Comma delimited format used in spreadsheet applications
http://www.bom.gov.au/fwo/IDD60701/IDD60701.95122.axf

JavaScript Object Notation format (JSON) in row-major order
http://www.bom.gov.au/fwo/IDD60701/IDD60701.95122.json